createdAt,value
2019-02-26T00:01:16.723Z,1.50
2019-02-26T00:04:04.543Z,1.50
2019-02-26T00:06:54.036Z,1.50
2019-02-26T00:09:42.098Z,1.50
2019-02-26T00:12:31.054Z,1.50
2019-02-26T00:15:20.712Z,0.90
2019-02-26T00:18:11.562Z,2.60
2019-02-26T00:21:00.702Z,1.40
2019-02-26T00:23:50.787Z,1.40
2019-02-26T00:26:40.757Z,1.40
2019-02-26T00:29:29.927Z,1.30
2019-02-26T00:32:19.628Z,2.20
2019-02-26T00:35:08.522Z,2.60
2019-02-26T00:37:56.654Z,1.20
2019-02-26T00:40:44.566Z,1.20
2019-02-26T00:43:34.503Z,0.90
2019-02-26T00:46:24.074Z,1.70
2019-02-26T00:49:11.879Z,1.10
2019-02-26T00:52:00.042Z,1.10
2019-02-26T00:54:50.934Z,1.10
2019-02-26T00:57:40.670Z,0.90
2019-02-26T01:00:30.945Z,1.10
2019-02-26T01:03:19.278Z,1.20
2019-02-26T01:06:07.984Z,1.30
2019-02-26T01:08:58.898Z,1.40
2019-02-26T01:17:54.998Z,2.80
2019-02-26T01:20:43.311Z,2.00
2019-02-26T01:23:31.525Z,2.10
2019-02-26T01:26:19.466Z,2.10
2019-02-26T01:29:07.261Z,2.50
2019-02-26T01:31:55.574Z,2.80
2019-02-26T01:34:44.988Z,2.40
2019-02-26T01:37:36.507Z,2.40
2019-02-26T01:40:25.790Z,3.10
2019-02-26T01:43:13.886Z,2.50
2019-02-26T01:46:01.684Z,2.50
2019-02-26T01:48:50.300Z,2.50
2019-02-26T01:51:38.714Z,2.50
2019-02-26T01:54:28.271Z,2.50
2019-02-26T01:57:17.429Z,3.10
2019-02-26T02:00:06.903Z,2.30
2019-02-26T02:02:55.090Z,2.10
2019-02-26T02:05:45.600Z,2.00
2019-02-26T02:08:33.071Z,1.90
2019-02-26T02:11:23.886Z,1.90
2019-02-26T02:14:12.739Z,1.80
2019-02-26T02:17:03.693Z,1.70
2019-02-26T02:19:52.093Z,1.60
2019-02-26T02:22:42.163Z,1.50
2019-02-26T02:25:33.163Z,1.50
2019-02-26T02:28:23.655Z,1.40
2019-02-26T02:31:09.980Z,1.40
2019-02-26T02:33:58.276Z,1.40
2019-02-26T02:36:46.405Z,1.40
2019-02-26T02:39:34.704Z,1.30
2019-02-26T02:42:22.541Z,1.00
2019-02-26T02:45:13.525Z,1.30
2019-02-26T02:48:03.330Z,1.30
2019-02-26T02:50:50.920Z,1.20
2019-02-26T02:53:39.465Z,1.20
2019-02-26T02:56:27.571Z,1.20
2019-02-26T02:59:16.558Z,1.10
2019-02-26T03:02:05.000Z,1.10
2019-02-26T03:04:53.340Z,1.00
2019-02-26T03:07:42.397Z,1.00
2019-02-26T03:13:25.471Z,1.00
2019-02-26T03:22:41.537Z,1.10
2019-02-26T03:25:29.104Z,1.00
2019-02-26T03:28:17.419Z,1.00
2019-02-26T03:31:05.602Z,1.00
2019-02-26T03:33:59.991Z,0.90
2019-02-26T03:36:45.767Z,0.80
2019-02-26T03:39:33.936Z,0.90
2019-02-26T03:42:22.263Z,1.00
2019-02-26T03:45:10.289Z,1.70
2019-02-26T03:47:58.729Z,0.80
2019-02-26T03:50:46.897Z,0.90
2019-02-26T03:53:36.324Z,0.90
2019-02-26T03:56:25.066Z,0.90
2019-02-26T03:59:12.987Z,0.90
2019-02-26T04:02:01.300Z,0.80
2019-02-26T04:07:56.784Z,0.80
2019-02-26T04:10:47.232Z,0.80
2019-02-26T04:13:34.918Z,0.80
2019-02-26T04:16:23.009Z,0.70
2019-02-26T04:19:11.210Z,0.80
2019-02-26T04:21:59.696Z,0.80
2019-02-26T04:24:50.044Z,0.80
2019-02-26T04:27:39.314Z,0.70
2019-02-26T04:30:27.538Z,0.70
2019-02-26T04:33:15.449Z,0.70
2019-02-26T04:36:03.412Z,0.60
2019-02-26T04:38:53.196Z,0.50
2019-02-26T04:41:41.291Z,0.90
2019-02-26T04:44:31.228Z,0.80
2019-02-26T04:47:21.935Z,0.00
2019-02-26T04:50:09.558Z,2.10
2019-02-26T04:52:59.754Z,0.90
2019-02-26T04:55:47.884Z,0.90
2019-02-26T04:58:37.249Z,0.90
2019-02-26T05:01:25.813Z,0.90
2019-02-26T05:04:14.065Z,0.90
2019-02-26T05:07:04.631Z,0.80
2019-02-26T05:09:54.862Z,0.80
2019-02-26T05:12:42.587Z,0.80
2019-02-26T05:15:33.278Z,0.80
2019-02-26T05:18:23.185Z,0.70
2019-02-26T05:21:12.980Z,0.70
2019-02-26T05:24:03.051Z,0.70
2019-02-26T05:26:51.504Z,0.70
2019-02-26T05:29:40.996Z,0.70
2019-02-26T05:32:30.936Z,0.60
2019-02-26T05:35:20.896Z,0.60
2019-02-26T05:38:09.820Z,0.60
2019-02-26T05:40:57.655Z,0.40
2019-02-26T05:43:49.315Z,0.60
2019-02-26T05:46:35.640Z,0.60
2019-02-26T05:49:23.685Z,0.60
2019-02-26T05:52:11.647Z,0.60
2019-02-26T05:54:59.570Z,0.60
2019-02-26T05:57:47.843Z,0.60
2019-02-26T06:00:36.171Z,0.60
2019-02-26T06:03:25.428Z,0.60
2019-02-26T06:06:13.625Z,0.60
2019-02-26T06:09:02.882Z,0.60
2019-02-26T06:11:51.889Z,0.60
2019-02-26T06:14:40.026Z,0.60
2019-02-26T06:17:28.248Z,0.60
2019-02-26T06:20:16.301Z,0.60
2019-02-26T06:23:04.209Z,0.60
2019-02-26T06:25:56.007Z,0.70
2019-02-26T06:28:43.547Z,0.70
2019-02-26T06:31:32.176Z,0.70
2019-02-26T06:34:21.490Z,0.80
2019-02-26T06:37:11.378Z,0.80
2019-02-26T06:40:00.475Z,0.90
2019-02-26T06:42:49.254Z,0.90
2019-02-26T06:45:38.425Z,0.90
2019-02-26T06:48:29.708Z,0.90
2019-02-26T06:51:19.088Z,1.00
2019-02-26T06:54:08.628Z,1.00
2019-02-26T06:56:56.413Z,1.00
2019-02-26T06:59:44.705Z,1.00
2019-02-26T07:02:32.868Z,1.10
2019-02-26T07:05:23.855Z,1.00
2019-02-26T07:08:11.004Z,1.10
2019-02-26T07:10:59.596Z,0.90
2019-02-26T07:13:47.430Z,1.00
2019-02-26T07:16:39.818Z,1.20
2019-02-26T07:19:26.200Z,1.30
2019-02-26T07:22:16.122Z,1.30
2019-02-26T07:25:06.442Z,1.30
2019-02-26T07:27:56.318Z,1.20
2019-02-26T07:30:45.158Z,1.40
2019-02-26T07:33:36.545Z,1.50
2019-02-26T07:36:27.647Z,1.50
2019-02-26T07:39:16.098Z,1.70
2019-02-26T07:42:07.413Z,1.80
2019-02-26T07:44:55.186Z,1.90
2019-02-26T07:47:45.113Z,1.90
2019-02-26T07:50:37.440Z,2.00
2019-02-26T07:53:24.617Z,2.10
2019-02-26T07:56:12.478Z,2.10
2019-02-26T07:59:02.038Z,2.30
2019-02-26T08:01:50.377Z,2.30
2019-02-26T08:04:38.952Z,2.30
2019-02-26T08:07:28.512Z,2.40
2019-02-26T08:10:19.279Z,2.30
2019-02-26T08:13:08.014Z,2.60
2019-02-26T08:15:58.304Z,2.60
2019-02-26T08:18:47.396Z,2.70
2019-02-26T08:21:36.317Z,2.70
2019-02-26T08:24:24.771Z,2.90
2019-02-26T08:27:13.551Z,3.00
2019-02-26T08:30:01.671Z,3.10
2019-02-26T08:32:53.560Z,3.30
2019-02-26T08:35:40.007Z,3.10
2019-02-26T08:38:29.990Z,3.70
2019-02-26T08:41:18.176Z,3.90
2019-02-26T08:44:06.613Z,4.20
2019-02-26T08:46:55.138Z,4.40
2019-02-26T08:49:45.140Z,4.60
2019-02-26T08:52:32.862Z,4.80
2019-02-26T08:55:23.962Z,5.20
2019-02-26T08:58:12.506Z,5.10
2019-02-26T09:01:01.238Z,5.30
2019-02-26T09:03:50.702Z,5.50
2019-02-26T09:06:39.504Z,5.70
2019-02-26T09:09:30.039Z,5.90
2019-02-26T09:12:19.750Z,6.10
2019-02-26T09:15:07.366Z,6.40
2019-02-26T09:17:55.741Z,6.60
2019-02-26T09:20:43.867Z,6.90
2019-02-26T09:23:32.856Z,7.20
2019-02-26T09:26:20.897Z,7.40
2019-02-26T09:29:10.325Z,7.80
2019-02-26T09:31:59.423Z,8.10
2019-02-26T09:34:47.412Z,8.40
2019-02-26T09:37:35.683Z,8.80
2019-02-26T09:40:26.297Z,9.10
2019-02-26T09:43:16.825Z,9.50
2019-02-26T09:46:06.199Z,10.40
2019-02-26T09:48:54.632Z,10.30
2019-02-26T09:51:42.697Z,10.70
2019-02-26T09:54:30.705Z,11.10
2019-02-26T09:57:21.165Z,11.70
2019-02-26T10:00:08.764Z,12.10
2019-02-26T10:02:57.274Z,12.50
2019-02-26T10:05:48.184Z,12.90
2019-02-26T10:08:36.283Z,13.30
2019-02-26T10:11:27.400Z,13.80
2019-02-26T10:14:15.052Z,14.10
2019-02-26T10:17:03.216Z,14.40
2019-02-26T10:19:51.478Z,14.70
2019-02-26T10:22:40.441Z,15.00
2019-02-26T10:25:32.176Z,15.30
2019-02-26T10:28:21.033Z,15.60
2019-02-26T10:31:09.716Z,15.80
2019-02-26T10:33:57.592Z,16.10
2019-02-26T10:36:48.733Z,16.40
2019-02-26T10:42:41.260Z,16.90
2019-02-26T10:45:29.038Z,17.10
2019-02-26T10:51:09.212Z,17.40
2019-02-26T10:53:59.841Z,17.70
2019-02-26T10:56:47.452Z,17.90
2019-02-26T10:59:35.720Z,18.00
2019-02-26T11:02:25.706Z,18.30
2019-02-26T11:05:16.733Z,18.80
2019-02-26T11:08:08.439Z,18.50
2019-02-26T11:10:53.408Z,18.70
2019-02-26T11:13:43.497Z,18.90
2019-02-26T11:16:33.099Z,19.00
2019-02-26T11:19:20.931Z,19.00
2019-02-26T11:22:09.443Z,19.20
2019-02-26T11:24:58.634Z,19.20
2019-02-26T11:27:48.494Z,18.70
2019-02-26T11:30:36.919Z,19.20
2019-02-26T11:33:25.283Z,19.30
2019-02-26T11:36:15.275Z,19.40
2019-02-26T11:39:05.064Z,19.50
2019-02-26T11:41:54.583Z,19.60
2019-02-26T11:44:42.990Z,19.60
2019-02-26T11:47:32.813Z,19.60
2019-02-26T11:50:27.090Z,19.60
2019-02-26T11:56:04.355Z,19.60
2019-02-26T11:58:53.127Z,19.60
2019-02-26T12:01:42.115Z,19.70
2019-02-26T12:04:31.845Z,19.70
2019-02-26T12:07:19.803Z,19.70
2019-02-26T12:10:11.675Z,19.80
2019-02-26T12:12:59.970Z,19.90
2019-02-26T12:15:48.135Z,20.00
2019-02-26T12:18:36.809Z,20.20
2019-02-26T12:21:25.718Z,20.30
2019-02-26T12:24:15.506Z,20.90
2019-02-26T12:27:04.353Z,20.50
2019-02-26T12:29:54.374Z,20.50
2019-02-26T12:32:45.051Z,20.60
2019-02-26T12:35:33.472Z,20.60
2019-02-26T12:38:21.889Z,20.80
2019-02-26T12:41:12.331Z,20.90
2019-02-26T12:44:02.262Z,21.00
2019-02-26T12:46:51.105Z,21.00
2019-02-26T12:49:42.205Z,21.10
2019-02-26T12:52:30.709Z,21.20
2019-02-26T12:58:06.007Z,21.30
2019-02-26T13:00:54.398Z,21.10
2019-02-26T13:03:46.300Z,21.50
2019-02-26T13:06:34.412Z,21.40
2019-02-26T13:09:26.596Z,21.50
2019-02-26T13:12:17.069Z,21.60
2019-02-26T13:15:08.735Z,21.70
2019-02-26T13:20:45.181Z,21.90
2019-02-26T13:23:33.106Z,22.00
2019-02-26T13:26:22.440Z,22.00
2019-02-26T13:29:11.232Z,22.10
2019-02-26T13:32:00.101Z,22.10
2019-02-26T13:34:51.508Z,22.20
2019-02-26T13:37:42.046Z,22.20
2019-02-26T13:40:28.920Z,22.20
2019-02-26T13:43:17.173Z,22.20
2019-02-26T13:46:05.109Z,22.30
2019-02-26T13:48:53.309Z,22.70
2019-02-26T13:51:41.596Z,22.30
2019-02-26T13:54:29.673Z,22.30
2019-02-26T13:57:18.125Z,22.20
2019-02-26T14:00:07.018Z,22.40
2019-02-26T14:02:55.529Z,22.00
2019-02-26T14:05:43.918Z,22.00
2019-02-26T14:08:31.983Z,22.10
2019-02-26T14:11:20.021Z,22.10
2019-02-26T14:14:07.870Z,22.10
2019-02-26T14:16:56.005Z,22.20
2019-02-26T14:19:43.944Z,22.30
2019-02-26T14:22:32.192Z,22.40
2019-02-26T14:25:20.149Z,22.30
2019-02-26T14:28:08.706Z,22.40
2019-02-26T14:30:56.555Z,22.40
2019-02-26T14:33:45.077Z,22.50
2019-02-26T14:36:34.210Z,22.50
2019-02-26T14:39:22.716Z,22.40
2019-02-26T14:42:11.028Z,22.40
2019-02-26T14:44:59.025Z,22.30
2019-02-26T14:47:47.045Z,22.30
2019-02-26T14:50:35.183Z,22.10
2019-02-26T14:53:23.048Z,21.60
2019-02-26T14:56:11.236Z,21.70
2019-02-26T14:58:59.875Z,21.50
2019-02-26T15:01:48.830Z,21.30
2019-02-26T15:04:37.367Z,21.10
2019-02-26T15:07:25.433Z,20.90
2019-02-26T15:10:13.551Z,20.70
2019-02-26T15:13:01.694Z,20.60
2019-02-26T15:15:50.294Z,20.40
2019-02-26T15:18:38.896Z,20.20
2019-02-26T15:21:27.659Z,20.10
2019-02-26T15:24:15.800Z,20.00
2019-02-26T15:27:03.640Z,19.90
2019-02-26T15:29:51.520Z,19.70
2019-02-26T15:32:39.609Z,19.50
2019-02-26T15:35:28.248Z,19.40
2019-02-26T15:38:16.272Z,19.30
2019-02-26T15:43:50.523Z,19.10
2019-02-26T15:46:38.954Z,19.00
2019-02-26T15:49:26.867Z,18.90
2019-02-26T15:52:15.148Z,18.80
2019-02-26T15:55:03.654Z,18.70
2019-02-26T15:57:52.079Z,18.60
2019-02-26T16:00:40.109Z,18.50
2019-02-26T16:03:29.742Z,18.00
2019-02-26T16:06:18.480Z,18.30
2019-02-26T16:09:07.105Z,18.20
2019-02-26T16:11:54.963Z,18.10
2019-02-26T16:14:43.422Z,17.90
2019-02-26T16:17:31.914Z,17.80
2019-02-26T16:20:20.660Z,17.70
2019-02-26T16:23:08.499Z,17.60
2019-02-26T16:25:56.246Z,17.40
2019-02-26T16:28:44.199Z,17.30
2019-02-26T16:31:32.327Z,17.30
2019-02-26T16:34:20.617Z,17.00
2019-02-26T16:37:09.191Z,16.80
2019-02-26T16:39:58.673Z,16.60
2019-02-26T16:42:47.278Z,16.50
2019-02-26T16:45:35.988Z,16.30
2019-02-26T16:48:24.511Z,16.10
2019-02-26T16:51:12.890Z,16.00
2019-02-26T16:54:00.779Z,15.80
2019-02-26T16:56:49.020Z,15.50
2019-02-26T16:59:38.514Z,15.30
2019-02-26T17:02:28.080Z,15.10
2019-02-26T17:05:16.932Z,15.10
2019-02-26T17:08:05.257Z,14.40
2019-02-26T17:10:53.273Z,14.10
2019-02-26T17:13:43.435Z,13.80
2019-02-26T17:16:32.683Z,13.50
2019-02-26T17:19:22.463Z,13.20
2019-02-26T17:22:10.227Z,12.90
2019-02-26T17:24:58.425Z,12.60
2019-02-26T17:27:46.861Z,12.30
2019-02-26T17:30:34.875Z,12.10
2019-02-26T17:33:23.260Z,11.90
2019-02-26T17:36:11.015Z,11.70
2019-02-26T17:38:59.370Z,11.50
2019-02-26T17:41:47.668Z,11.30
2019-02-26T17:44:36.364Z,11.10
2019-02-26T17:47:25.473Z,10.80
2019-02-26T17:50:14.025Z,10.50
2019-02-26T17:53:02.101Z,10.30
2019-02-26T17:55:50.212Z,10.10
2019-02-26T17:58:38.143Z,9.90
2019-02-26T18:01:26.276Z,9.70
2019-02-26T18:04:14.328Z,9.40
2019-02-26T18:07:02.923Z,9.20
2019-02-26T18:09:51.361Z,9.00
2019-02-26T18:12:39.944Z,8.80
2019-02-26T18:18:26.693Z,8.40
2019-02-26T18:21:15.779Z,8.10
2019-02-26T18:24:04.084Z,8.00
2019-02-26T18:26:51.943Z,7.80
2019-02-26T18:29:40.833Z,7.70
2019-02-26T18:35:32.811Z,7.40
2019-02-26T18:38:20.775Z,7.30
2019-02-26T18:41:08.632Z,7.20
2019-02-26T18:44:04.206Z,7.00
2019-02-26T18:46:52.934Z,6.90
2019-02-26T18:49:40.972Z,6.80
2019-02-26T18:52:29.833Z,6.60
2019-02-26T18:55:17.865Z,6.70
2019-02-26T18:58:06.438Z,6.50
2019-02-26T19:00:58.290Z,6.40
2019-02-26T19:03:44.981Z,6.30
2019-02-26T19:06:33.660Z,6.30
2019-02-26T19:09:22.578Z,6.20
2019-02-26T19:12:11.183Z,6.20
2019-02-26T19:14:59.913Z,6.20
2019-02-26T19:17:48.090Z,6.20
2019-02-26T19:20:36.118Z,6.20
2019-02-26T19:23:24.901Z,6.30
2019-02-26T19:26:13.720Z,6.40
2019-02-26T19:29:02.413Z,6.40
2019-02-26T19:31:50.303Z,6.50
2019-02-26T19:34:38.810Z,6.50
2019-02-26T19:37:26.657Z,6.60
2019-02-26T19:40:14.865Z,6.60
2019-02-26T19:43:02.597Z,6.50
2019-02-26T19:45:51.273Z,7.30
2019-02-26T19:48:43.959Z,6.50
2019-02-26T19:51:34.713Z,6.50
2019-02-26T19:54:22.941Z,6.50
2019-02-26T19:57:12.372Z,6.60
2019-02-26T20:00:00.895Z,6.50
2019-02-26T20:02:49.754Z,6.50
2019-02-26T20:05:37.924Z,6.20
2019-02-26T20:08:25.923Z,6.50
2019-02-26T20:14:33.727Z,6.60
2019-02-26T20:17:22.805Z,6.70
2019-02-26T20:20:11.156Z,6.90
2019-02-26T20:22:59.485Z,6.90
2019-02-26T20:25:47.693Z,7.00
2019-02-26T20:28:35.993Z,7.10
2019-02-26T20:31:24.872Z,7.10
2019-02-26T20:34:13.766Z,7.10
2019-02-26T20:37:01.822Z,7.40
2019-02-26T20:39:49.841Z,7.30
2019-02-26T20:42:38.313Z,7.40
2019-02-26T20:45:25.719Z,7.70
2019-02-26T20:48:14.217Z,7.70
2019-02-26T20:51:03.113Z,8.10
2019-02-26T20:53:51.340Z,7.90
2019-02-26T20:56:39.936Z,8.00
2019-02-26T20:59:28.296Z,8.10
2019-02-26T21:02:17.048Z,8.30
2019-02-26T21:05:05.257Z,8.50
2019-02-26T21:07:57.962Z,8.20
2019-02-26T21:10:47.659Z,8.50
2019-02-26T21:13:34.884Z,8.50
2019-02-26T21:16:23.646Z,8.70
2019-02-26T21:19:12.129Z,8.60
2019-02-26T21:22:00.983Z,8.70
2019-02-26T21:24:49.414Z,8.70
2019-02-26T21:30:30.334Z,8.80
2019-02-26T21:33:20.905Z,8.90
2019-02-26T21:36:09.468Z,8.90
2019-02-26T21:41:49.870Z,9.00
2019-02-26T21:44:41.651Z,8.90
2019-02-26T21:50:22.907Z,8.80
2019-02-26T21:53:15.353Z,8.60
2019-02-26T21:56:00.699Z,8.60
2019-02-26T21:58:49.282Z,8.50
2019-02-26T22:01:37.747Z,8.40
2019-02-26T22:04:25.983Z,8.40
2019-02-26T22:07:14.406Z,9.10
2019-02-26T22:10:07.073Z,8.40
2019-02-26T22:12:56.593Z,8.10
2019-02-26T22:15:44.703Z,9.60
2019-02-26T22:18:34.388Z,8.50
2019-02-26T22:21:23.293Z,8.50
2019-02-26T22:24:11.831Z,8.50
2019-02-26T22:27:00.256Z,8.60
2019-02-26T22:29:48.692Z,9.00
2019-02-26T22:32:36.467Z,8.60
2019-02-26T22:35:25.891Z,8.70
2019-02-26T22:38:15.434Z,8.70
2019-02-26T22:41:04.226Z,8.70
2019-02-26T22:43:52.485Z,8.80
2019-02-26T22:46:41.047Z,8.80
2019-02-26T22:49:29.105Z,8.80
2019-02-26T22:52:17.099Z,8.80
2019-02-26T22:55:05.157Z,8.70
2019-02-26T22:57:52.997Z,8.60
2019-02-26T23:03:58.020Z,8.40
2019-02-26T23:06:46.604Z,8.30
2019-02-26T23:09:35.484Z,8.10
2019-02-26T23:12:23.302Z,8.70
2019-02-26T23:15:12.570Z,7.70
2019-02-26T23:18:00.947Z,7.60
2019-02-26T23:20:48.976Z,7.50
2019-02-26T23:23:36.894Z,7.40
2019-02-26T23:26:24.730Z,7.30
2019-02-26T23:29:12.765Z,7.20
2019-02-26T23:32:01.043Z,7.10
2019-02-26T23:34:49.127Z,7.10
2019-02-26T23:37:37.057Z,7.10
2019-02-26T23:40:27.427Z,7.10
2019-02-26T23:43:15.290Z,7.10
2019-02-26T23:46:03.366Z,7.20
2019-02-26T23:48:52.067Z,7.20
2019-02-26T23:51:40.091Z,7.20
2019-02-26T23:54:28.605Z,7.30
2019-02-26T23:57:16.921Z,7.20
